Camano Island, WA (98282)

4:06 PM PST on March 01, 2015 (GMT -0800)
Indian Beach | Change Station
CLOSE
Current Station
Personal Weather Station
Location: Camano Island, WA
Elevation: 135 ft
Nearby Weather Stations

Elev 135 ft 48.17 °N, 122.52 °W | Updated 11 seconds ago

Mostly Cloudy
Mostly Cloudy
48.3 °F
Feels Like 47 °F
N
4.0
Wind Variable Wind from SSW
Gusts 7.0 mph

Today
High -- | Low -- °F
--% Chance of Precip.
Yesterday
High -- | Low -- °F
Precip. -- in
6:51 AM 5:54 PM
Waxing Gibbous, 88% visible
Pressure 30.08 in
Visibility 10.0 miles
Clouds Mostly Cloudy 12000 ft
Overcast 16000 ft
Windchill 47 °F
Dew Point 41 °F
Humidity 77%
Rainfall 0.00 in
Snow Depth Not available.
UV 0 out of 12
Pollen 6.50 out of 12
Air Quality Not available.
Flu Activity Not available.
METAR KNUW 012356Z 29005KT 10SM BKN120 OVC160 09/02 A3007 RMK AO2 SLP185 T00940022 10111 20083 56026 VISNO E $

More Conditions Fewer Conditions

Pressure 30.08 in
Visibility 10.0 miles
Clouds Mostly Cloudy 12000 ft
Overcast 16000 ft
Windchill 47 °F
Dew Point 41 °F
Humidity 77%
Rainfall 0.00 in
Snow Depth Not available.
UV 0 out of 12
Pollen 6.50 out of 12
Air Quality Not available.
Flu Activity Not available.
METAR KNUW 012356Z 29005KT 10SM BKN120 OVC160 09/02 A3007 RMK AO2 SLP185 T00940022 10111 20083 56026 VISNO E $

More Conditions Fewer Conditions

10-Day Weather Forecast

Almanac

Astronomy

Mar. 01, 2015 Rise Set
Actual Time
Civil Twilight
Nautical Twilight
Astronomical Twilight
Moon
Length of Visible Light
Length of Day
Tomorrow will be .
, % of the Moon is Illuminated

Today's Extremes

State Highs State Lows

Community

WunderPhotos

Upload Photos

1,801,634 photos uploaded!

WunderBlogs® & News

Nearby

Air Quality

  Air Quality AQ Index Pollutant
Not available.

Snow Depth

Station Depth Elevation

Earthquake Activity

City Distance Mag. Time & Date
Minimum magnitude displayed is 2.5.

Coastal Water Temperatures

Place Temperature

Nearby Weather Stations